createdAt,value
2022-08-17T00:06:53.779Z,99862.31
2022-08-17T00:22:31.422Z,99858.75
2022-08-17T00:37:23.886Z,99863.27
2022-08-17T00:52:32.681Z,99859.38
2022-08-17T01:07:37.963Z,99867.16
2022-08-17T01:22:41.942Z,99876.58
2022-08-17T01:37:45.514Z,99888.85
2022-08-17T01:52:51.915Z,99889.73
2022-08-17T02:07:59.521Z,99889.06
2022-08-17T02:23:05.342Z,99880.83
2022-08-17T02:38:11.376Z,99885.69
2022-08-17T02:53:14.475Z,99880.66
2022-08-17T03:08:19.864Z,99874.23
2022-08-17T03:23:25.766Z,99881.05
2022-08-17T03:38:29.221Z,99889.89
2022-08-17T03:54:12.921Z,99898.44
2022-08-17T04:09:15.961Z,99900.15
2022-08-17T04:24:19.604Z,99907.08
2022-08-17T04:39:25.501Z,99912.77
2022-08-17T04:54:28.666Z,99916.60
2022-08-17T05:09:33.310Z,99926.52
2022-08-17T05:24:40.691Z,99928.69
2022-08-17T05:39:47.062Z,99935.46
2022-08-17T05:55:07.945Z,99949.16
2022-08-17T06:10:18.556Z,99945.63
2022-08-17T06:25:46.510Z,99947.34
2022-08-17T06:40:59.459Z,99954.16
2022-08-17T06:56:09.349Z,99960.91
2022-08-17T07:11:21.234Z,99960.07
2022-08-17T07:26:24.659Z,99960.23
2022-08-17T07:41:57.536Z,99962.81
2022-08-17T07:57:08.711Z,99966.59
2022-08-17T08:12:28.955Z,99965.70
2022-08-17T08:28:01.960Z,99971.77
2022-08-17T08:43:37.234Z,99971.05
2022-08-17T08:58:54.564Z,99964.05
2022-08-17T09:14:21.886Z,99965.77
2022-08-17T09:29:36.074Z,99959.48
2022-08-17T09:45:27.816Z,99967.84
2022-08-17T10:00:37.707Z,99960.09
2022-08-17T10:15:44.431Z,99965.89
2022-08-17T10:31:17.021Z,99959.56
2022-08-17T10:46:44.428Z,99947.99
2022-08-17T11:02:04.838Z,99950.13
2022-08-17T11:17:46.566Z,99943.95
